EBAW/ANR METAR and TAF weather

Enter ICAO airport designator
Station Type Date Time Source
EBAW METAR 2021/01/16 01:50 UTC NOAA

EBAW 160150Z AUTO 20002KT 9999 // OVC044/// 02/M02 Q1030


Station Type Date Time Source
EBAW Decoded METAR 2021/01/16 01:50 UTC NOAA

Antwerpen / Deurne, Belgium (EBAW) 51-12N 004-28E 14M
Jan 15, 2021 - 08:50 PM EST / 2021.01.16 0150 UTC
Wind: from the SSW (200 degrees) at 2 MPH (2 KT):0
Visibility: greater than 7 mile(s):0
Sky conditions: overcast
Temperature: 35 F (2 C)
Dew Point: 28 F (-2 C)
Relative Humidity: 74%
Pressure (altimeter): 30.42 in. Hg (1030 hPa)
ob: EBAW 160150Z AUTO 20002KT 9999 // OVC044/// 02/M02 Q1030
cycle: 2

Station Type Date Time Source
EBAW TAF 2020/09/23 00:30 UTC NOAA

TAF TAF EBAW 232300Z 2400/2412 25011KT 9999 SCT030

Example: see airport list